sensor_id;sensor_type;location;lat;lon;timestamp;P1;durP1;ratioP1;P2;durP2;ratioP2
19171;SDS011;9718;52.200;21.052;2022-10-26T00:01:14;25.90;;;14.07;;
19171;SDS011;9718;52.200;21.052;2022-10-26T00:03:43;25.67;;;14.43;;
19171;SDS011;9718;52.200;21.052;2022-10-26T00:06:14;23.67;;;13.90;;
19171;SDS011;9718;52.200;21.052;2022-10-26T00:08:46;25.23;;;14.23;;
19171;SDS011;9718;52.200;21.052;2022-10-26T00:11:14;24.50;;;13.20;;
19171;SDS011;9718;52.200;21.052;2022-10-26T00:13:41;21.67;;;13.20;;
19171;SDS011;9718;52.200;21.052;2022-10-26T00:16:09;26.93;;;14.87;;
19171;SDS011;9718;52.200;21.052;2022-10-26T00:18:40;25.50;;;14.00;;
19171;SDS011;9718;52.200;21.052;2022-10-26T00:21:08;30.83;;;13.17;;
19171;SDS011;9718;52.200;21.052;2022-10-26T00:23:36;25.97;;;14.57;;
19171;SDS011;9718;52.200;21.052;2022-10-26T00:26:04;24.83;;;13.90;;
19171;SDS011;9718;52.200;21.052;2022-10-26T00:28:32;25.23;;;14.00;;
19171;SDS011;9718;52.200;21.052;2022-10-26T00:31:00;25.10;;;14.50;;
19171;SDS011;9718;52.200;21.052;2022-10-26T00:33:28;27.60;;;15.37;;
19171;SDS011;9718;52.200;21.052;2022-10-26T00:35:55;23.13;;;14.40;;
19171;SDS011;9718;52.200;21.052;2022-10-26T00:38:23;23.40;;;13.77;;
19171;SDS011;9718;52.200;21.052;2022-10-26T00:40:50;31.33;;;14.83;;
19171;SDS011;9718;52.200;21.052;2022-10-26T00:45:50;24.77;;;15.67;;
19171;SDS011;9718;52.200;21.052;2022-10-26T00:50:50;28.57;;;16.47;;
19171;SDS011;9718;52.200;21.052;2022-10-26T00:53:18;32.30;;;16.50;;
19171;SDS011;9718;52.200;21.052;2022-10-26T00:55:47;30.27;;;14.30;;
19171;SDS011;9718;52.200;21.052;2022-10-26T00:58:16;26.10;;;15.40;;
19171;SDS011;9718;52.200;21.052;2022-10-26T01:00:44;27.77;;;16.23;;
19171;SDS011;9718;52.200;21.052;2022-10-26T01:03:11;29.17;;;15.03;;
19171;SDS011;9718;52.200;21.052;2022-10-26T01:05:39;30.37;;;14.63;;
19171;SDS011;9718;52.200;21.052;2022-10-26T01:08:09;28.13;;;14.63;;
19171;SDS011;9718;52.200;21.052;2022-10-26T01:10:37;25.70;;;14.97;;
19171;SDS011;9718;52.200;21.052;2022-10-26T01:13:07;25.27;;;14.47;;
19171;SDS011;9718;52.200;21.052;2022-10-26T01:15:47;25.10;;;15.17;;
19171;SDS011;9718;52.200;21.052;2022-10-26T01:18:31;28.47;;;16.07;;
19171;SDS011;9718;52.200;21.052;2022-10-26T01:38:15;24.50;;;14.57;;
19171;SDS011;9718;52.200;21.052;2022-10-26T01:40:59;24.23;;;14.47;;
19171;SDS011;9718;52.200;21.052;2022-10-26T01:43:52;22.70;;;14.17;;
19171;SDS011;9718;52.200;21.052;2022-10-26T01:46:42;28.40;;;16.37;;
19171;SDS011;9718;52.200;21.052;2022-10-26T01:49:12;28.73;;;15.57;;
19171;SDS011;9718;52.200;21.052;2022-10-26T01:51:42;28.70;;;15.63;;
19171;SDS011;9718;52.200;21.052;2022-10-26T01:54:12;26.27;;;16.13;;
19171;SDS011;9718;52.200;21.052;2022-10-26T01:56:40;27.20;;;15.73;;
19171;SDS011;9718;52.200;21.052;2022-10-26T01:59:12;28.80;;;16.40;;
19171;SDS011;9718;52.200;21.052;2022-10-26T02:15:21;31.50;;;15.17;;
19171;SDS011;9718;52.200;21.052;2022-10-26T02:17:53;29.33;;;16.60;;
19171;SDS011;9718;52.200;21.052;2022-10-26T02:20:26;32.30;;;17.43;;
19171;SDS011;9718;52.200;21.052;2022-10-26T02:22:58;30.23;;;17.00;;
19171;SDS011;9718;52.200;21.052;2022-10-26T02:25:30;31.97;;;16.83;;
19171;SDS011;9718;52.200;21.052;2022-10-26T02:28:02;30.23;;;17.80;;
19171;SDS011;9718;52.200;21.052;2022-10-26T02:30:33;28.47;;;16.80;;
19171;SDS011;9718;52.200;21.052;2022-10-26T02:33:01;34.60;;;18.23;;
19171;SDS011;9718;52.200;21.052;2022-10-26T02:35:31;29.87;;;17.30;;
19171;SDS011;9718;52.200;21.052;2022-10-26T02:38:01;33.27;;;17.67;;
19171;SDS011;9718;52.200;21.052;2022-10-26T02:40:33;29.53;;;16.97;;
19171;SDS011;9718;52.200;21.052;2022-10-26T02:43:05;37.73;;;17.50;;
19171;SDS011;9718;52.200;21.052;2022-10-26T02:45:45;33.90;;;17.73;;
19171;SDS011;9718;52.200;21.052;2022-10-26T02:48:16;30.40;;;17.10;;
19171;SDS011;9718;52.200;21.052;2022-10-26T02:53:33;35.20;;;16.93;;
19171;SDS011;9718;52.200;21.052;2022-10-26T02:56:09;28.80;;;15.50;;
19171;SDS011;9718;52.200;21.052;2022-10-26T02:58:42;28.00;;;16.10;;
19171;SDS011;9718;52.200;21.052;2022-10-26T03:01:15;29.77;;;15.67;;
19171;SDS011;9718;52.200;21.052;2022-10-26T03:03:42;30.23;;;16.67;;
19171;SDS011;9718;52.200;21.052;2022-10-26T03:06:10;28.27;;;16.27;;
19171;SDS011;9718;52.200;21.052;2022-10-26T03:08:37;32.73;;;16.37;;
19171;SDS011;9718;52.200;21.052;2022-10-26T03:11:04;31.23;;;16.13;;
19171;SDS011;9718;52.200;21.052;2022-10-26T03:13:31;27.10;;;15.90;;
19171;SDS011;9718;52.200;21.052;2022-10-26T03:15:58;26.20;;;15.23;;
19171;SDS011;9718;52.200;21.052;2022-10-26T03:18:25;29.83;;;15.60;;
19171;SDS011;9718;52.200;21.052;2022-10-26T03:20:52;29.83;;;15.17;;
19171;SDS011;9718;52.200;21.052;2022-10-26T03:23:19;23.50;;;14.67;;
19171;SDS011;9718;52.200;21.052;2022-10-26T03:25:46;29.83;;;14.97;;
19171;SDS011;9718;52.200;21.052;2022-10-26T03:28:13;27.97;;;16.17;;
19171;SDS011;9718;52.200;21.052;2022-10-26T03:30:41;27.47;;;15.77;;
19171;SDS011;9718;52.200;21.052;2022-10-26T03:33:08;29.63;;;16.17;;
19171;SDS011;9718;52.200;21.052;2022-10-26T03:35:35;29.30;;;16.10;;
19171;SDS011;9718;52.200;21.052;2022-10-26T03:38:02;30.77;;;18.03;;
19171;SDS011;9718;52.200;21.052;2022-10-26T03:40:29;28.30;;;16.77;;
19171;SDS011;9718;52.200;21.052;2022-10-26T03:42:56;29.37;;;16.67;;
19171;SDS011;9718;52.200;21.052;2022-10-26T03:45:23;33.97;;;17.77;;
19171;SDS011;9718;52.200;21.052;2022-10-26T03:47:50;33.80;;;16.93;;
19171;SDS011;9718;52.200;21.052;2022-10-26T03:50:18;34.33;;;18.13;;
19171;SDS011;9718;52.200;21.052;2022-10-26T03:52:47;28.17;;;16.53;;
19171;SDS011;9718;52.200;21.052;2022-10-26T03:55:15;31.70;;;16.43;;
19171;SDS011;9718;52.200;21.052;2022-10-26T03:57:42;31.13;;;17.27;;
19171;SDS011;9718;52.200;21.052;2022-10-26T04:00:11;31.57;;;16.03;;
19171;SDS011;9718;52.200;21.052;2022-10-26T04:02:43;34.50;;;16.17;;
19171;SDS011;9718;52.200;21.052;2022-10-26T04:05:15;31.50;;;16.17;;
19171;SDS011;9718;52.200;21.052;2022-10-26T04:07:50;31.63;;;15.23;;
19171;SDS011;9718;52.200;21.052;2022-10-26T04:10:18;36.37;;;18.13;;
19171;SDS011;9718;52.200;21.052;2022-10-26T04:12:45;33.57;;;16.50;;
19171;SDS011;9718;52.200;21.052;2022-10-26T04:15:12;28.87;;;15.47;;
19171;SDS011;9718;52.200;21.052;2022-10-26T04:17:39;32.60;;;16.37;;
19171;SDS011;9718;52.200;21.052;2022-10-26T04:20:07;37.63;;;17.07;;
19171;SDS011;9718;52.200;21.052;2022-10-26T04:22:34;35.97;;;17.37;;
19171;SDS011;9718;52.200;21.052;2022-10-26T04:25:02;30.27;;;16.77;;
19171;SDS011;9718;52.200;21.052;2022-10-26T04:27:30;34.23;;;17.67;;
19171;SDS011;9718;52.200;21.052;2022-10-26T04:29:57;32.93;;;17.47;;
19171;SDS011;9718;52.200;21.052;2022-10-26T04:32:24;33.53;;;17.47;;
19171;SDS011;9718;52.200;21.052;2022-10-26T04:34:52;36.33;;;17.43;;
19171;SDS011;9718;52.200;21.052;2022-10-26T04:37:19;34.80;;;17.50;;
19171;SDS011;9718;52.200;21.052;2022-10-26T04:39:47;32.43;;;18.20;;
19171;SDS011;9718;52.200;21.052;2022-10-26T04:42:13;31.10;;;17.17;;
19171;SDS011;9718;52.200;21.052;2022-10-26T04:44:41;33.13;;;17.87;;
19171;SDS011;9718;52.200;21.052;2022-10-26T04:47:08;35.13;;;17.73;;
19171;SDS011;9718;52.200;21.052;2022-10-26T04:49:35;33.13;;;19.20;;
19171;SDS011;9718;52.200;21.052;2022-10-26T04:52:02;32.13;;;17.40;;
19171;SDS011;9718;52.200;21.052;2022-10-26T04:54:31;31.37;;;18.33;;
19171;SDS011;9718;52.200;21.052;2022-10-26T04:56:58;31.53;;;17.23;;
19171;SDS011;9718;52.200;21.052;2022-10-26T04:59:25;32.73;;;17.70;;
19171;SDS011;9718;52.200;21.052;2022-10-26T05:01:52;31.13;;;17.80;;
19171;SDS011;9718;52.200;21.052;2022-10-26T05:04:19;39.50;;;23.37;;
19171;SDS011;9718;52.200;21.052;2022-10-26T05:06:46;31.97;;;17.13;;
19171;SDS011;9718;52.200;21.052;2022-10-26T05:09:13;32.07;;;17.27;;
19171;SDS011;9718;52.200;21.052;2022-10-26T05:11:41;34.33;;;17.00;;
19171;SDS011;9718;52.200;21.052;2022-10-26T05:14:08;30.83;;;17.20;;
19171;SDS011;9718;52.200;21.052;2022-10-26T05:16:35;29.90;;;16.57;;
19171;SDS011;9718;52.200;21.052;2022-10-26T05:19:02;30.83;;;16.90;;
19171;SDS011;9718;52.200;21.052;2022-10-26T05:21:29;28.33;;;15.70;;
19171;SDS011;9718;52.200;21.052;2022-10-26T05:23:56;30.67;;;16.87;;
19171;SDS011;9718;52.200;21.052;2022-10-26T05:26:23;31.27;;;17.13;;
19171;SDS011;9718;52.200;21.052;2022-10-26T05:28:51;30.93;;;16.60;;
19171;SDS011;9718;52.200;21.052;2022-10-26T05:31:19;38.00;;;19.20;;
19171;SDS011;9718;52.200;21.052;2022-10-26T05:33:50;33.57;;;15.33;;
19171;SDS011;9718;52.200;21.052;2022-10-26T05:36:17;33.30;;;16.83;;
19171;SDS011;9718;52.200;21.052;2022-10-26T05:38:45;32.53;;;17.03;;
19171;SDS011;9718;52.200;21.052;2022-10-26T05:41:12;35.43;;;16.30;;
19171;SDS011;9718;52.200;21.052;2022-10-26T05:43:39;34.60;;;15.50;;
19171;SDS011;9718;52.200;21.052;2022-10-26T05:46:06;33.00;;;16.33;;
19171;SDS011;9718;52.200;21.052;2022-10-26T05:48:33;34.67;;;15.67;;
19171;SDS011;9718;52.200;21.052;2022-10-26T05:51:01;30.13;;;14.33;;
19171;SDS011;9718;52.200;21.052;2022-10-26T05:53:28;28.80;;;13.40;;
19171;SDS011;9718;52.200;21.052;2022-10-26T05:55:55;30.40;;;14.20;;
19171;SDS011;9718;52.200;21.052;2022-10-26T05:58:23;29.00;;;13.90;;
19171;SDS011;9718;52.200;21.052;2022-10-26T06:01:12;26.67;;;13.33;;
19171;SDS011;9718;52.200;21.052;2022-10-26T06:04:20;23.20;;;12.57;;
19171;SDS011;9718;52.200;21.052;2022-10-26T06:06:56;24.73;;;13.13;;
19171;SDS011;9718;52.200;21.052;2022-10-26T06:09:24;24.90;;;11.87;;
19171;SDS011;9718;52.200;21.052;2022-10-26T06:11:51;26.03;;;12.27;;
19171;SDS011;9718;52.200;21.052;2022-10-26T06:14:19;23.70;;;10.90;;
19171;SDS011;9718;52.200;21.052;2022-10-26T06:30:07;23.23;;;12.60;;
19171;SDS011;9718;52.200;21.052;2022-10-26T06:32:35;24.30;;;11.40;;
19171;SDS011;9718;52.200;21.052;2022-10-26T06:37:53;26.93;;;12.97;;
19171;SDS011;9718;52.200;21.052;2022-10-26T06:40:22;22.87;;;11.77;;
19171;SDS011;9718;52.200;21.052;2022-10-26T06:42:50;22.37;;;11.57;;
19171;SDS011;9718;52.200;21.052;2022-10-26T06:45:17;21.57;;;11.50;;
19171;SDS011;9718;52.200;21.052;2022-10-26T06:47:48;21.50;;;11.43;;
19171;SDS011;9718;52.200;21.052;2022-10-26T06:53:08;20.97;;;10.53;;
19171;SDS011;9718;52.200;21.052;2022-10-26T06:56:00;19.70;;;10.50;;
19171;SDS011;9718;52.200;21.052;2022-10-26T06:58:29;21.70;;;10.47;;
19171;SDS011;9718;52.200;21.052;2022-10-26T07:00:58;20.20;;;10.67;;
19171;SDS011;9718;52.200;21.052;2022-10-26T07:03:26;21.77;;;9.83;;
19171;SDS011;9718;52.200;21.052;2022-10-26T07:05:53;23.63;;;10.53;;
19171;SDS011;9718;52.200;21.052;2022-10-26T07:08:20;24.47;;;10.30;;
19171;SDS011;9718;52.200;21.052;2022-10-26T07:10:47;25.53;;;10.73;;
19171;SDS011;9718;52.200;21.052;2022-10-26T07:13:14;28.13;;;11.23;;
19171;SDS011;9718;52.200;21.052;2022-10-26T07:15:41;22.57;;;11.60;;
19171;SDS011;9718;52.200;21.052;2022-10-26T07:18:08;22.97;;;10.60;;
19171;SDS011;9718;52.200;21.052;2022-10-26T07:20:37;25.50;;;12.00;;
19171;SDS011;9718;52.200;21.052;2022-10-26T07:23:05;28.47;;;11.23;;
19171;SDS011;9718;52.200;21.052;2022-10-26T07:25:33;25.20;;;12.00;;
19171;SDS011;9718;52.200;21.052;2022-10-26T07:28:05;22.77;;;11.43;;
19171;SDS011;9718;52.200;21.052;2022-10-26T07:30:36;31.43;;;13.33;;
19171;SDS011;9718;52.200;21.052;2022-10-26T07:33:09;27.20;;;12.53;;
19171;SDS011;9718;52.200;21.052;2022-10-26T07:35:39;27.93;;;13.47;;
19171;SDS011;9718;52.200;21.052;2022-10-26T07:38:06;27.77;;;12.23;;
19171;SDS011;9718;52.200;21.052;2022-10-26T07:40:34;26.13;;;14.17;;
19171;SDS011;9718;52.200;21.052;2022-10-26T07:43:02;31.63;;;13.87;;
19171;SDS011;9718;52.200;21.052;2022-10-26T07:45:30;24.57;;;12.90;;
19171;SDS011;9718;52.200;21.052;2022-10-26T07:47:57;26.70;;;13.77;;
19171;SDS011;9718;52.200;21.052;2022-10-26T07:50:24;27.93;;;13.80;;
19171;SDS011;9718;52.200;21.052;2022-10-26T07:52:51;28.07;;;14.23;;
19171;SDS011;9718;52.200;21.052;2022-10-26T07:55:19;25.87;;;14.43;;
19171;SDS011;9718;52.200;21.052;2022-10-26T07:57:46;25.67;;;13.30;;
19171;SDS011;9718;52.200;21.052;2022-10-26T08:00:20;26.43;;;13.73;;
19171;SDS011;9718;52.200;21.052;2022-10-26T08:02:47;29.93;;;13.27;;
19171;SDS011;9718;52.200;21.052;2022-10-26T08:05:14;24.07;;;11.40;;
19171;SDS011;9718;52.200;21.052;2022-10-26T08:07:42;22.67;;;11.40;;
19171;SDS011;9718;52.200;21.052;2022-10-26T08:10:10;26.10;;;12.30;;
19171;SDS011;9718;52.200;21.052;2022-10-26T08:12:38;25.87;;;11.67;;
19171;SDS011;9718;52.200;21.052;2022-10-26T08:15:06;21.73;;;11.60;;
19171;SDS011;9718;52.200;21.052;2022-10-26T08:17:34;22.13;;;11.27;;
19171;SDS011;9718;52.200;21.052;2022-10-26T08:20:01;22.53;;;11.63;;
19171;SDS011;9718;52.200;21.052;2022-10-26T08:22:29;24.90;;;11.70;;
19171;SDS011;9718;52.200;21.052;2022-10-26T08:24:56;21.03;;;11.33;;
19171;SDS011;9718;52.200;21.052;2022-10-26T08:27:23;21.00;;;10.37;;
19171;SDS011;9718;52.200;21.052;2022-10-26T08:29:51;18.10;;;9.70;;
19171;SDS011;9718;52.200;21.052;2022-10-26T08:32:18;18.10;;;9.93;;
19171;SDS011;9718;52.200;21.052;2022-10-26T08:34:45;24.93;;;10.60;;
19171;SDS011;9718;52.200;21.052;2022-10-26T08:37:12;24.47;;;11.13;;
19171;SDS011;9718;52.200;21.052;2022-10-26T08:39:39;21.60;;;11.13;;
19171;SDS011;9718;52.200;21.052;2022-10-26T08:42:10;19.60;;;10.87;;
19171;SDS011;9718;52.200;21.052;2022-10-26T08:44:45;22.30;;;11.10;;
19171;SDS011;9718;52.200;21.052;2022-10-26T08:47:19;25.80;;;12.93;;
19171;SDS011;9718;52.200;21.052;2022-10-26T08:49:53;21.60;;;11.57;;
19171;SDS011;9718;52.200;21.052;2022-10-26T08:52:49;23.77;;;12.73;;
19171;SDS011;9718;52.200;21.052;2022-10-26T08:55:22;27.83;;;12.60;;
19171;SDS011;9718;52.200;21.052;2022-10-26T08:57:53;28.03;;;13.17;;
19171;SDS011;9718;52.200;21.052;2022-10-26T09:00:22;23.77;;;12.90;;
19171;SDS011;9718;52.200;21.052;2022-10-26T09:02:52;21.30;;;10.70;;
19171;SDS011;9718;52.200;21.052;2022-10-26T09:05:26;20.07;;;9.87;;
19171;SDS011;9718;52.200;21.052;2022-10-26T09:10:57;20.97;;;11.23;;
19171;SDS011;9718;52.200;21.052;2022-10-26T09:16:27;17.97;;;9.80;;
19171;SDS011;9718;52.200;21.052;2022-10-26T09:19:05;23.63;;;10.97;;
19171;SDS011;9718;52.200;21.052;2022-10-26T09:21:42;23.47;;;9.83;;
19171;SDS011;9718;52.200;21.052;2022-10-26T09:24:13;21.23;;;10.00;;
19171;SDS011;9718;52.200;21.052;2022-10-26T09:26:52;22.57;;;10.93;;
19171;SDS011;9718;52.200;21.052;2022-10-26T09:29:35;22.03;;;10.20;;
19171;SDS011;9718;52.200;21.052;2022-10-26T09:32:16;21.83;;;10.90;;
19171;SDS011;9718;52.200;21.052;2022-10-26T09:34:47;21.30;;;11.20;;
19171;SDS011;9718;52.200;21.052;2022-10-26T09:37:22;24.50;;;11.30;;
19171;SDS011;9718;52.200;21.052;2022-10-26T09:39:58;22.80;;;11.27;;
19171;SDS011;9718;52.200;21.052;2022-10-26T09:42:35;26.00;;;12.07;;
19171;SDS011;9718;52.200;21.052;2022-10-26T09:45:05;26.23;;;12.37;;
19171;SDS011;9718;52.200;21.052;2022-10-26T09:47:49;27.00;;;12.80;;
19171;SDS011;9718;52.200;21.052;2022-10-26T09:50:21;23.07;;;10.47;;
19171;SDS011;9718;52.200;21.052;2022-10-26T09:52:52;24.47;;;10.80;;
19171;SDS011;9718;52.200;21.052;2022-10-26T09:55:19;19.50;;;8.87;;
19171;SDS011;9718;52.200;21.052;2022-10-26T09:57:49;18.77;;;9.57;;
19171;SDS011;9718;52.200;21.052;2022-10-26T10:00:19;17.80;;;8.50;;
19171;SDS011;9718;52.200;21.052;2022-10-26T10:02:52;17.40;;;8.53;;
19171;SDS011;9718;52.200;21.052;2022-10-26T10:08:14;16.80;;;9.30;;
19171;SDS011;9718;52.200;21.052;2022-10-26T10:10:53;18.07;;;7.57;;
19171;SDS011;9718;52.200;21.052;2022-10-26T10:13:30;16.60;;;8.27;;
19171;SDS011;9718;52.200;21.052;2022-10-26T10:16:10;16.87;;;7.97;;
19171;SDS011;9718;52.200;21.052;2022-10-26T10:18:54;14.17;;;8.10;;
19171;SDS011;9718;52.200;21.052;2022-10-26T10:21:57;17.40;;;8.10;;
19171;SDS011;9718;52.200;21.052;2022-10-26T10:24:32;13.97;;;8.23;;
19171;SDS011;9718;52.200;21.052;2022-10-26T10:29:41;17.97;;;8.33;;
19171;SDS011;9718;52.200;21.052;2022-10-26T10:32:23;24.67;;;9.40;;
19171;SDS011;9718;52.200;21.052;2022-10-26T10:34:54;18.43;;;9.03;;
19171;SDS011;9718;52.200;21.052;2022-10-26T10:37:25;17.73;;;8.57;;
19171;SDS011;9718;52.200;21.052;2022-10-26T10:40:00;22.17;;;9.33;;
19171;SDS011;9718;52.200;21.052;2022-10-26T10:42:31;19.33;;;9.83;;
19171;SDS011;9718;52.200;21.052;2022-10-26T10:45:01;17.53;;;8.73;;
19171;SDS011;9718;52.200;21.052;2022-10-26T10:47:30;21.10;;;9.93;;
19171;SDS011;9718;52.200;21.052;2022-10-26T10:50:00;22.80;;;9.97;;
19171;SDS011;9718;52.200;21.052;2022-10-26T10:52:31;21.37;;;10.67;;
19171;SDS011;9718;52.200;21.052;2022-10-26T10:55:35;18.50;;;9.87;;
19171;SDS011;9718;52.200;21.052;2022-10-26T10:57:58;19.53;;;9.50;;
19171;SDS011;9718;52.200;21.052;2022-10-26T11:01:00;17.63;;;10.73;;
19171;SDS011;9718;52.200;21.052;2022-10-26T11:06:36;16.67;;;9.63;;
19171;SDS011;9718;52.200;21.052;2022-10-26T11:09:07;26.43;;;10.53;;
19171;SDS011;9718;52.200;21.052;2022-10-26T11:11:42;19.93;;;9.47;;
19171;SDS011;9718;52.200;21.052;2022-10-26T11:19:28;17.10;;;9.13;;
19171;SDS011;9718;52.200;21.052;2022-10-26T11:22:00;13.77;;;8.13;;
19171;SDS011;9718;52.200;21.052;2022-10-26T11:24:33;13.93;;;6.60;;
19171;SDS011;9718;52.200;21.052;2022-10-26T11:27:11;18.33;;;7.23;;
19171;SDS011;9718;52.200;21.052;2022-10-26T11:38:04;15.23;;;7.70;;
19171;SDS011;9718;52.200;21.052;2022-10-26T11:43:34;19.07;;;8.30;;
19171;SDS011;9718;52.200;21.052;2022-10-26T11:46:08;15.57;;;7.77;;
19171;SDS011;9718;52.200;21.052;2022-10-26T11:54:31;18.30;;;8.30;;
19171;SDS011;9718;52.200;21.052;2022-10-26T11:57:01;15.57;;;8.13;;
19171;SDS011;9718;52.200;21.052;2022-10-26T11:59:31;14.67;;;8.10;;
19171;SDS011;9718;52.200;21.052;2022-10-26T12:02:11;14.07;;;7.60;;
19171;SDS011;9718;52.200;21.052;2022-10-26T12:04:42;18.80;;;7.87;;
19171;SDS011;9718;52.200;21.052;2022-10-26T12:07:20;16.13;;;8.53;;
19171;SDS011;9718;52.200;21.052;2022-10-26T12:09:57;14.53;;;7.57;;
19171;SDS011;9718;52.200;21.052;2022-10-26T12:15:05;20.90;;;9.37;;
19171;SDS011;9718;52.200;21.052;2022-10-26T12:18:20;16.37;;;9.47;;
19171;SDS011;9718;52.200;21.052;2022-10-26T12:21:18;16.97;;;8.83;;
19171;SDS011;9718;52.200;21.052;2022-10-26T12:23:58;20.20;;;9.87;;
19171;SDS011;9718;52.200;21.052;2022-10-26T12:33:59;20.43;;;9.90;;
19171;SDS011;9718;52.200;21.052;2022-10-26T12:44:38;18.80;;;8.83;;
19171;SDS011;9718;52.200;21.052;2022-10-26T13:09:15;19.57;;;9.00;;
19171;SDS011;9718;52.200;21.052;2022-10-26T13:11:47;22.93;;;9.50;;
19171;SDS011;9718;52.200;21.052;2022-10-26T13:14:19;21.83;;;9.63;;
19171;SDS011;9718;52.200;21.052;2022-10-26T13:16:49;24.00;;;10.17;;
19171;SDS011;9718;52.200;21.052;2022-10-26T13:21:58;21.40;;;9.20;;
19171;SDS011;9718;52.200;21.052;2022-10-26T13:24:26;19.17;;;9.00;;
19171;SDS011;9718;52.200;21.052;2022-10-26T13:30:09;19.80;;;8.70;;
19171;SDS011;9718;52.200;21.052;2022-10-26T13:32:34;22.93;;;9.53;;
19171;SDS011;9718;52.200;21.052;2022-10-26T13:35:08;20.60;;;9.00;;
19171;SDS011;9718;52.200;21.052;2022-10-26T13:37:42;17.50;;;9.40;;
19171;SDS011;9718;52.200;21.052;2022-10-26T13:40:15;19.60;;;9.57;;
19171;SDS011;9718;52.200;21.052;2022-10-26T13:42:45;18.53;;;8.33;;
19171;SDS011;9718;52.200;21.052;2022-10-26T13:45:19;22.20;;;8.47;;
19171;SDS011;9718;52.200;21.052;2022-10-26T13:47:57;16.63;;;8.47;;
19171;SDS011;9718;52.200;21.052;2022-10-26T13:50:27;19.27;;;8.60;;
19171;SDS011;9718;52.200;21.052;2022-10-26T13:53:00;17.97;;;8.70;;
19171;SDS011;9718;52.200;21.052;2022-10-26T13:55:47;18.30;;;8.33;;
19171;SDS011;9718;52.200;21.052;2022-10-26T13:58:26;20.33;;;9.10;;
19171;SDS011;9718;52.200;21.052;2022-10-26T14:03:51;15.37;;;8.40;;
19171;SDS011;9718;52.200;21.052;2022-10-26T14:06:28;19.17;;;8.37;;
19171;SDS011;9718;52.200;21.052;2022-10-26T14:09:03;19.77;;;8.93;;
19171;SDS011;9718;52.200;21.052;2022-10-26T14:14:21;17.20;;;7.80;;
19171;SDS011;9718;52.200;21.052;2022-10-26T14:16:51;20.20;;;8.53;;
19171;SDS011;9718;52.200;21.052;2022-10-26T14:19:24;15.90;;;8.03;;
19171;SDS011;9718;52.200;21.052;2022-10-26T14:21:56;13.77;;;7.17;;
19171;SDS011;9718;52.200;21.052;2022-10-26T14:27:15;16.53;;;7.67;;
19171;SDS011;9718;52.200;21.052;2022-10-26T14:29:43;18.07;;;7.47;;
19171;SDS011;9718;52.200;21.052;2022-10-26T14:34:57;15.93;;;7.40;;
19171;SDS011;9718;52.200;21.052;2022-10-26T14:40:24;23.67;;;7.57;;
19171;SDS011;9718;52.200;21.052;2022-10-26T14:42:55;15.53;;;7.93;;
19171;SDS011;9718;52.200;21.052;2022-10-26T14:48:17;16.40;;;8.83;;
19171;SDS011;9718;52.200;21.052;2022-10-26T14:50:58;15.60;;;7.57;;
19171;SDS011;9718;52.200;21.052;2022-10-26T14:53:36;16.00;;;8.53;;
19171;SDS011;9718;52.200;21.052;2022-10-26T15:04:41;21.23;;;7.90;;
19171;SDS011;9718;52.200;21.052;2022-10-26T15:07:23;17.77;;;8.03;;
19171;SDS011;9718;52.200;21.052;2022-10-26T15:10:01;20.17;;;8.17;;
19171;SDS011;9718;52.200;21.052;2022-10-26T15:12:35;16.33;;;8.27;;
19171;SDS011;9718;52.200;21.052;2022-10-26T15:15:37;17.40;;;8.73;;
19171;SDS011;9718;52.200;21.052;2022-10-26T15:17:56;18.90;;;8.73;;
19171;SDS011;9718;52.200;21.052;2022-10-26T15:20:26;17.70;;;8.13;;
19171;SDS011;9718;52.200;21.052;2022-10-26T15:22:56;16.37;;;8.13;;
19171;SDS011;9718;52.200;21.052;2022-10-26T15:25:29;23.17;;;7.60;;
19171;SDS011;9718;52.200;21.052;2022-10-26T15:31:01;17.43;;;8.43;;
19171;SDS011;9718;52.200;21.052;2022-10-26T15:33:38;17.13;;;8.80;;
19171;SDS011;9718;52.200;21.052;2022-10-26T15:36:19;21.27;;;8.67;;
19171;SDS011;9718;52.200;21.052;2022-10-26T15:38:47;16.70;;;7.93;;
19171;SDS011;9718;52.200;21.052;2022-10-26T15:41:20;21.93;;;8.90;;
19171;SDS011;9718;52.200;21.052;2022-10-26T15:43:53;17.47;;;8.73;;
19171;SDS011;9718;52.200;21.052;2022-10-26T15:46:29;17.33;;;7.90;;
19171;SDS011;9718;52.200;21.052;2022-10-26T15:49:07;16.00;;;7.13;;
19171;SDS011;9718;52.200;21.052;2022-10-26T15:51:40;15.17;;;7.93;;
19171;SDS011;9718;52.200;21.052;2022-10-26T15:54:08;16.73;;;7.67;;
19171;SDS011;9718;52.200;21.052;2022-10-26T15:56:35;19.07;;;7.97;;
19171;SDS011;9718;52.200;21.052;2022-10-26T15:59:09;21.27;;;7.93;;
19171;SDS011;9718;52.200;21.052;2022-10-26T16:01:40;16.83;;;8.00;;
19171;SDS011;9718;52.200;21.052;2022-10-26T16:04:08;15.37;;;7.47;;
19171;SDS011;9718;52.200;21.052;2022-10-26T16:06:37;18.50;;;7.67;;
19171;SDS011;9718;52.200;21.052;2022-10-26T16:09:06;15.50;;;7.63;;
19171;SDS011;9718;52.200;21.052;2022-10-26T16:11:38;16.10;;;8.23;;
19171;SDS011;9718;52.200;21.052;2022-10-26T16:14:05;15.87;;;7.73;;
19171;SDS011;9718;52.200;21.052;2022-10-26T16:16:33;19.60;;;8.40;;
19171;SDS011;9718;52.200;21.052;2022-10-26T16:19:00;18.37;;;8.63;;
19171;SDS011;9718;52.200;21.052;2022-10-26T16:21:49;20.20;;;9.43;;
19171;SDS011;9718;52.200;21.052;2022-10-26T16:24:17;23.17;;;9.40;;
19171;SDS011;9718;52.200;21.052;2022-10-26T16:26:44;17.20;;;8.77;;
19171;SDS011;9718;52.200;21.052;2022-10-26T16:29:11;18.57;;;9.10;;
19171;SDS011;9718;52.200;21.052;2022-10-26T16:31:38;21.77;;;10.60;;
19171;SDS011;9718;52.200;21.052;2022-10-26T16:34:05;18.90;;;9.13;;
19171;SDS011;9718;52.200;21.052;2022-10-26T16:36:32;20.97;;;9.67;;
19171;SDS011;9718;52.200;21.052;2022-10-26T16:39:00;18.40;;;9.20;;
19171;SDS011;9718;52.200;21.052;2022-10-26T16:41:28;17.80;;;8.43;;
19171;SDS011;9718;52.200;21.052;2022-10-26T16:43:57;17.37;;;8.30;;
19171;SDS011;9718;52.200;21.052;2022-10-26T16:46:24;20.73;;;9.20;;
19171;SDS011;9718;52.200;21.052;2022-10-26T16:48:51;19.10;;;8.40;;
19171;SDS011;9718;52.200;21.052;2022-10-26T16:51:21;19.17;;;9.03;;
19171;SDS011;9718;52.200;21.052;2022-10-26T16:53:51;19.90;;;9.33;;
19171;SDS011;9718;52.200;21.052;2022-10-26T16:56:20;18.00;;;8.90;;
19171;SDS011;9718;52.200;21.052;2022-10-26T16:58:49;18.10;;;10.17;;
19171;SDS011;9718;52.200;21.052;2022-10-26T17:01:17;24.87;;;9.60;;
19171;SDS011;9718;52.200;21.052;2022-10-26T17:03:46;19.33;;;10.23;;
19171;SDS011;9718;52.200;21.052;2022-10-26T17:06:14;20.97;;;8.70;;
19171;SDS011;9718;52.200;21.052;2022-10-26T17:08:43;18.40;;;9.37;;
19171;SDS011;9718;52.200;21.052;2022-10-26T17:11:11;19.93;;;9.20;;
19171;SDS011;9718;52.200;21.052;2022-10-26T17:13:40;22.90;;;10.60;;
19171;SDS011;9718;52.200;21.052;2022-10-26T17:16:10;29.30;;;11.67;;
19171;SDS011;9718;52.200;21.052;2022-10-26T17:18:40;27.50;;;12.03;;
19171;SDS011;9718;52.200;21.052;2022-10-26T17:21:08;24.90;;;11.50;;
19171;SDS011;9718;52.200;21.052;2022-10-26T17:23:37;23.30;;;10.97;;
19171;SDS011;9718;52.200;21.052;2022-10-26T17:26:05;25.60;;;11.70;;
19171;SDS011;9718;52.200;21.052;2022-10-26T17:28:34;28.60;;;11.20;;
19171;SDS011;9718;52.200;21.052;2022-10-26T17:31:05;22.93;;;10.47;;
19171;SDS011;9718;52.200;21.052;2022-10-26T17:33:33;25.90;;;10.50;;
19171;SDS011;9718;52.200;21.052;2022-10-26T17:36:01;21.93;;;11.07;;
19171;SDS011;9718;52.200;21.052;2022-10-26T17:38:34;18.30;;;9.40;;